sensor_id;sensor_type;location;lat;lon;timestamp;pressure;altitude;pressure_sealevel;temperature;humidity
48882;BME280;57063;51.406;-2.402;2023-11-21T00:01:06;100580.16;;;10.07;100.00
48882;BME280;57063;51.406;-2.402;2023-11-21T00:03:33;100578.09;;;9.98;100.00
48882;BME280;57063;51.406;-2.402;2023-11-21T00:05:59;100579.22;;;10.10;100.00
48882;BME280;57063;51.406;-2.402;2023-11-21T00:08:25;100579.69;;;10.00;100.00
48882;BME280;57063;51.406;-2.402;2023-11-21T00:10:51;100583.75;;;10.04;100.00
48882;BME280;57063;51.406;-2.402;2023-11-21T00:13:16;100584.91;;;9.99;100.00
48882;BME280;57063;51.406;-2.402;2023-11-21T00:15:41;100586.25;;;10.06;100.00
48882;BME280;57063;51.406;-2.402;2023-11-21T00:18:07;100576.00;;;10.04;100.00
48882;BME280;57063;51.406;-2.402;2023-11-21T00:20:32;100579.69;;;10.16;100.00
48882;BME280;57063;51.406;-2.402;2023-11-21T00:22:57;100582.63;;;10.10;100.00
48882;BME280;57063;51.406;-2.402;2023-11-21T00:25:24;100587.78;;;10.10;100.00
48882;BME280;57063;51.406;-2.402;2023-11-21T00:27:50;100603.38;;;10.07;100.00
48882;BME280;57063;51.406;-2.402;2023-11-21T00:30:15;100594.75;;;10.08;100.00
48882;BME280;57063;51.406;-2.402;2023-11-21T00:32:41;100597.50;;;10.05;100.00
48882;BME280;57063;51.406;-2.402;2023-11-21T00:35:06;100599.25;;;10.20;100.00
48882;BME280;57063;51.406;-2.402;2023-11-21T00:37:32;100601.84;;;10.20;100.00
48882;BME280;57063;51.406;-2.402;2023-11-21T00:39:58;100606.75;;;10.25;100.00
48882;BME280;57063;51.406;-2.402;2023-11-21T00:42:23;100612.16;;;10.20;100.00
48882;BME280;57063;51.406;-2.402;2023-11-21T00:44:48;100607.31;;;10.14;100.00
48882;BME280;57063;51.406;-2.402;2023-11-21T00:47:14;100616.56;;;10.18;100.00
48882;BME280;57063;51.406;-2.402;2023-11-21T00:49:39;100612.56;;;10.13;100.00
48882;BME280;57063;51.406;-2.402;2023-11-21T00:52:05;100618.25;;;10.19;100.00
48882;BME280;57063;51.406;-2.402;2023-11-21T00:54:30;100616.56;;;10.18;100.00
48882;BME280;57063;51.406;-2.402;2023-11-21T00:56:56;100609.88;;;10.14;100.00
48882;BME280;57063;51.406;-2.402;2023-11-21T00:59:22;100611.22;;;10.05;100.00
48882;BME280;57063;51.406;-2.402;2023-11-21T01:01:48;100615.03;;;9.98;100.00
48882;BME280;57063;51.406;-2.402;2023-11-21T01:04:13;100609.06;;;10.14;100.00
48882;BME280;57063;51.406;-2.402;2023-11-21T01:06:38;100614.56;;;10.07;100.00
48882;BME280;57063;51.406;-2.402;2023-11-21T01:09:04;100617.91;;;10.10;100.00
48882;BME280;57063;51.406;-2.402;2023-11-21T01:11:34;100618.59;;;9.96;100.00
48882;BME280;57063;51.406;-2.402;2023-11-21T01:14:02;100619.81;;;9.89;100.00
48882;BME280;57063;51.406;-2.402;2023-11-21T01:16:28;100623.53;;;10.00;100.00
48882;BME280;57063;51.406;-2.402;2023-11-21T01:18:54;100635.47;;;9.85;100.00
48882;BME280;57063;51.406;-2.402;2023-11-21T01:21:19;100645.03;;;9.83;100.00
48882;BME280;57063;51.406;-2.402;2023-11-21T01:23:45;100643.03;;;9.89;100.00
48882;BME280;57063;51.406;-2.402;2023-11-21T01:26:10;100645.63;;;10.04;100.00
48882;BME280;57063;51.406;-2.402;2023-11-21T01:28:35;100647.59;;;9.83;100.00
48882;BME280;57063;51.406;-2.402;2023-11-21T01:31:00;100655.59;;;9.95;100.00
48882;BME280;57063;51.406;-2.402;2023-11-21T01:33:26;100653.78;;;9.97;100.00
48882;BME280;57063;51.406;-2.402;2023-11-21T01:35:51;100670.75;;;10.01;100.00
48882;BME280;57063;51.406;-2.402;2023-11-21T01:38:20;100676.84;;;10.00;100.00
48882;BME280;57063;51.406;-2.402;2023-11-21T01:40:45;100685.63;;;9.96;100.00
48882;BME280;57063;51.406;-2.402;2023-11-21T01:43:10;100684.59;;;10.00;100.00
48882;BME280;57063;51.406;-2.402;2023-11-21T01:45:36;100693.66;;;9.90;100.00
48882;BME280;57063;51.406;-2.402;2023-11-21T01:48:01;100701.28;;;9.93;100.00
48882;BME280;57063;51.406;-2.402;2023-11-21T01:50:28;100701.88;;;9.98;100.00
48882;BME280;57063;51.406;-2.402;2023-11-21T01:52:54;100709.00;;;9.93;100.00
48882;BME280;57063;51.406;-2.402;2023-11-21T01:55:19;100710.38;;;10.00;100.00
48882;BME280;57063;51.406;-2.402;2023-11-21T01:57:46;100713.19;;;9.95;100.00
48882;BME280;57063;51.406;-2.402;2023-11-21T02:00:12;100716.59;;;9.96;100.00
48882;BME280;57063;51.406;-2.402;2023-11-21T02:02:44;100723.88;;;10.05;100.00
48882;BME280;57063;51.406;-2.402;2023-11-21T02:05:17;100723.25;;;10.00;100.00
48882;BME280;57063;51.406;-2.402;2023-11-21T02:07:43;100724.47;;;9.93;100.00
48882;BME280;57063;51.406;-2.402;2023-11-21T02:10:09;100743.88;;;10.00;100.00
48882;BME280;57063;51.406;-2.402;2023-11-21T02:12:35;100742.13;;;10.00;100.00
48882;BME280;57063;51.406;-2.402;2023-11-21T02:15:04;100747.69;;;9.93;100.00
48882;BME280;57063;51.406;-2.402;2023-11-21T02:17:35;100747.47;;;9.97;100.00
48882;BME280;57063;51.406;-2.402;2023-11-21T02:20:00;100758.28;;;10.04;100.00
48882;BME280;57063;51.406;-2.402;2023-11-21T02:22:30;100752.97;;;10.07;100.00
48882;BME280;57063;51.406;-2.402;2023-11-21T02:24:57;100750.09;;;9.96;100.00
48882;BME280;57063;51.406;-2.402;2023-11-21T02:27:23;100756.16;;;9.95;100.00
48882;BME280;57063;51.406;-2.402;2023-11-21T02:29:49;100756.16;;;9.95;100.00
48882;BME280;57063;51.406;-2.402;2023-11-21T02:32:15;100752.00;;;10.10;100.00
48882;BME280;57063;51.406;-2.402;2023-11-21T02:34:42;100760.09;;;10.02;100.00
48882;BME280;57063;51.406;-2.402;2023-11-21T02:37:08;100756.63;;;10.03;100.00
48882;BME280;57063;51.406;-2.402;2023-11-21T02:39:34;100758.22;;;10.05;100.00
48882;BME280;57063;51.406;-2.402;2023-11-21T02:41:59;100758.44;;;10.01;100.00
48882;BME280;57063;51.406;-2.402;2023-11-21T02:44:25;100763.28;;;10.07;100.00
48882;BME280;57063;51.406;-2.402;2023-11-21T02:46:51;100758.59;;;9.98;100.00
48882;BME280;57063;51.406;-2.402;2023-11-21T02:49:16;100764.81;;;9.94;100.00
48882;BME280;57063;51.406;-2.402;2023-11-21T02:51:42;100773.75;;;10.04;100.00
48882;BME280;57063;51.406;-2.402;2023-11-21T02:54:07;100770.56;;;9.99;100.00
48882;BME280;57063;51.406;-2.402;2023-11-21T02:56:33;100764.44;;;10.01;100.00
48882;BME280;57063;51.406;-2.402;2023-11-21T02:59:00;100761.47;;;10.09;100.00
48882;BME280;57063;51.406;-2.402;2023-11-21T03:01:26;100764.56;;;10.16;100.00
48882;BME280;57063;51.406;-2.402;2023-11-21T03:03:52;100769.78;;;10.14;100.00
48882;BME280;57063;51.406;-2.402;2023-11-21T03:06:21;100770.66;;;9.97;100.00
48882;BME280;57063;51.406;-2.402;2023-11-21T03:08:46;100780.22;;;9.95;100.00
48882;BME280;57063;51.406;-2.402;2023-11-21T03:11:12;100777.53;;;9.97;100.00
48882;BME280;57063;51.406;-2.402;2023-11-21T03:13:41;100780.72;;;10.02;100.00
48882;BME280;57063;51.406;-2.402;2023-11-21T03:16:11;100784.28;;;9.99;100.00
48882;BME280;57063;51.406;-2.402;2023-11-21T03:18:37;100790.31;;;10.00;100.00
48882;BME280;57063;51.406;-2.402;2023-11-21T03:21:04;100799.47;;;10.05;100.00
48882;BME280;57063;51.406;-2.402;2023-11-21T03:23:30;100791.75;;;10.05;100.00
48882;BME280;57063;51.406;-2.402;2023-11-21T03:25:55;100798.03;;;10.00;100.00
48882;BME280;57063;51.406;-2.402;2023-11-21T03:28:20;100804.19;;;9.97;100.00
48882;BME280;57063;51.406;-2.402;2023-11-21T03:30:46;100805.63;;;10.03;100.00
48882;BME280;57063;51.406;-2.402;2023-11-21T03:33:11;100814.03;;;10.06;100.00
48882;BME280;57063;51.406;-2.402;2023-11-21T03:35:37;100819.28;;;10.05;100.00
48882;BME280;57063;51.406;-2.402;2023-11-21T03:38:02;100820.88;;;10.07;100.00
48882;BME280;57063;51.406;-2.402;2023-11-21T03:40:28;100823.91;;;9.98;100.00
48882;BME280;57063;51.406;-2.402;2023-11-21T03:42:53;100832.09;;;10.06;100.00
48882;BME280;57063;51.406;-2.402;2023-11-21T03:45:18;100842.63;;;10.02;100.00
48882;BME280;57063;51.406;-2.402;2023-11-21T03:47:44;100840.97;;;10.01;100.00
48882;BME280;57063;51.406;-2.402;2023-11-21T03:50:09;100848.31;;;10.08;100.00
48882;BME280;57063;51.406;-2.402;2023-11-21T03:52:35;100843.31;;;10.05;100.00
48882;BME280;57063;51.406;-2.402;2023-11-21T03:55:01;100849.47;;;10.03;100.00
48882;BME280;57063;51.406;-2.402;2023-11-21T03:57:27;100848.69;;;10.01;100.00
48882;BME280;57063;51.406;-2.402;2023-11-21T03:59:53;100860.22;;;10.11;100.00
48882;BME280;57063;51.406;-2.402;2023-11-21T04:02:19;100871.59;;;10.07;100.00
48882;BME280;57063;51.406;-2.402;2023-11-21T04:04:44;100866.44;;;10.07;100.00
48882;BME280;57063;51.406;-2.402;2023-11-21T04:07:09;100873.56;;;10.02;100.00
48882;BME280;57063;51.406;-2.402;2023-11-21T04:09:36;100878.28;;;10.11;100.00
48882;BME280;57063;51.406;-2.402;2023-11-21T04:12:02;100886.47;;;10.02;100.00
48882;BME280;57063;51.406;-2.402;2023-11-21T04:14:27;100883.47;;;9.92;100.00
48882;BME280;57063;51.406;-2.402;2023-11-21T04:16:53;100881.16;;;9.88;100.00
48882;BME280;57063;51.406;-2.402;2023-11-21T04:19:19;100891.16;;;9.94;100.00
48882;BME280;57063;51.406;-2.402;2023-11-21T04:21:44;100891.16;;;9.94;100.00
48882;BME280;57063;51.406;-2.402;2023-11-21T04:24:10;100897.13;;;9.94;100.00
48882;BME280;57063;51.406;-2.402;2023-11-21T04:26:35;100903.13;;;9.95;100.00
48882;BME280;57063;51.406;-2.402;2023-11-21T04:29:01;100898.84;;;9.76;100.00
48882;BME280;57063;51.406;-2.402;2023-11-21T04:31:26;100911.75;;;9.76;100.00
48882;BME280;57063;51.406;-2.402;2023-11-21T04:33:52;100916.13;;;9.74;100.00
48882;BME280;57063;51.406;-2.402;2023-11-21T04:36:17;100916.84;;;9.78;100.00
48882;BME280;57063;51.406;-2.402;2023-11-21T04:38:43;100925.47;;;9.77;100.00
48882;BME280;57063;51.406;-2.402;2023-11-21T04:41:09;100925.88;;;9.68;100.00
48882;BME280;57063;51.406;-2.402;2023-11-21T04:43:34;100922.06;;;9.76;100.00
48882;BME280;57063;51.406;-2.402;2023-11-21T04:45:59;100925.03;;;9.67;100.00
48882;BME280;57063;51.406;-2.402;2023-11-21T04:48:27;100928.66;;;9.63;100.00
48882;BME280;57063;51.406;-2.402;2023-11-21T04:50:52;100932.09;;;9.63;100.00
48882;BME280;57063;51.406;-2.402;2023-11-21T04:53:17;100944.41;;;9.57;100.00
48882;BME280;57063;51.406;-2.402;2023-11-21T04:55:43;100953.94;;;9.55;100.00
48882;BME280;57063;51.406;-2.402;2023-11-21T04:58:09;100951.16;;;9.40;100.00
48882;BME280;57063;51.406;-2.402;2023-11-21T05:00:34;100964.31;;;9.34;100.00
48882;BME280;57063;51.406;-2.402;2023-11-21T05:03:02;100971.13;;;9.35;100.00
48882;BME280;57063;51.406;-2.402;2023-11-21T05:05:27;100986.44;;;9.38;100.00
48882;BME280;57063;51.406;-2.402;2023-11-21T05:07:52;100982.97;;;9.39;100.00
48882;BME280;57063;51.406;-2.402;2023-11-21T05:10:19;100980.47;;;9.38;100.00
48882;BME280;57063;51.406;-2.402;2023-11-21T05:12:44;100982.97;;;9.39;100.00
48882;BME280;57063;51.406;-2.402;2023-11-21T05:15:12;100992.91;;;9.28;100.00
48882;BME280;57063;51.406;-2.402;2023-11-21T05:17:40;100989.63;;;9.25;100.00
48882;BME280;57063;51.406;-2.402;2023-11-21T05:20:10;101002.38;;;9.28;100.00
48882;BME280;57063;51.406;-2.402;2023-11-21T05:22:37;101002.72;;;9.20;100.00
48882;BME280;57063;51.406;-2.402;2023-11-21T05:25:03;101002.56;;;9.23;100.00
48882;BME280;57063;51.406;-2.402;2023-11-21T05:27:31;101011.59;;;9.13;100.00
48882;BME280;57063;51.406;-2.402;2023-11-21T05:29:56;101020.03;;;9.16;100.00
48882;BME280;57063;51.406;-2.402;2023-11-21T05:32:23;101012.38;;;9.15;100.00
48882;BME280;57063;51.406;-2.402;2023-11-21T05:34:49;101012.56;;;9.10;100.00
48882;BME280;57063;51.406;-2.402;2023-11-21T05:37:14;101022.16;;;9.07;100.00
48882;BME280;57063;51.406;-2.402;2023-11-21T05:39:39;101035.94;;;9.06;100.00
48882;BME280;57063;51.406;-2.402;2023-11-21T05:42:05;101038.31;;;9.10;100.00
48882;BME280;57063;51.406;-2.402;2023-11-21T05:44:31;101036.94;;;9.02;100.00
48882;BME280;57063;51.406;-2.402;2023-11-21T05:46:56;101048.16;;;9.00;100.00
48882;BME280;57063;51.406;-2.402;2023-11-21T05:49:24;101035.34;;;8.99;100.00
48882;BME280;57063;51.406;-2.402;2023-11-21T05:51:52;101041.88;;;9.08;100.00
48882;BME280;57063;51.406;-2.402;2023-11-21T05:54:19;101055.09;;;8.98;100.00
48882;BME280;57063;51.406;-2.402;2023-11-21T05:56:44;101044.22;;;8.92;100.00
48882;BME280;57063;51.406;-2.402;2023-11-21T05:59:10;101048.59;;;8.90;100.00
48882;BME280;57063;51.406;-2.402;2023-11-21T06:01:35;101050.59;;;8.83;100.00
48882;BME280;57063;51.406;-2.402;2023-11-21T06:04:03;101059.09;;;8.85;100.00
48882;BME280;57063;51.406;-2.402;2023-11-21T06:06:29;101059.44;;;8.76;100.00
48882;BME280;57063;51.406;-2.402;2023-11-21T06:08:54;101060.09;;;8.81;100.00
48882;BME280;57063;51.406;-2.402;2023-11-21T06:11:20;101071.41;;;8.77;100.00
48882;BME280;57063;51.406;-2.402;2023-11-21T06:13:45;101070.53;;;8.78;100.00
48882;BME280;57063;51.406;-2.402;2023-11-21T06:16:11;101073.09;;;8.78;100.00
48882;BME280;57063;51.406;-2.402;2023-11-21T06:18:39;101064.09;;;8.88;100.00
48882;BME280;57063;51.406;-2.402;2023-11-21T06:21:05;101075.28;;;8.87;100.00
48882;BME280;57063;51.406;-2.402;2023-11-21T06:23:31;101079.38;;;8.93;100.00
48882;BME280;57063;51.406;-2.402;2023-11-21T06:25:56;101076.34;;;8.83;100.00
48882;BME280;57063;51.406;-2.402;2023-11-21T06:28:22;101084.88;;;8.84;100.00
48882;BME280;57063;51.406;-2.402;2023-11-21T06:30:47;101084.22;;;8.78;100.00
48882;BME280;57063;51.406;-2.402;2023-11-21T06:33:14;101081.84;;;8.74;100.00
48882;BME280;57063;51.406;-2.402;2023-11-21T06:35:39;101092.97;;;8.74;100.00
48882;BME280;57063;51.406;-2.402;2023-11-21T06:38:05;101096.66;;;8.67;100.00
48882;BME280;57063;51.406;-2.402;2023-11-21T06:40:30;101092.47;;;8.65;100.00
48882;BME280;57063;51.406;-2.402;2023-11-21T06:42:56;101096.81;;;8.64;100.00
48882;BME280;57063;51.406;-2.402;2023-11-21T06:45:23;101092.44;;;8.66;100.00
48882;BME280;57063;51.406;-2.402;2023-11-21T06:47:49;101091.78;;;8.61;100.00
48882;BME280;57063;51.406;-2.402;2023-11-21T06:50:14;101093.56;;;8.59;100.00
48882;BME280;57063;51.406;-2.402;2023-11-21T06:52:39;101100.34;;;8.62;100.00
48882;BME280;57063;51.406;-2.402;2023-11-21T06:55:05;101108.19;;;8.59;100.00
48882;BME280;57063;51.406;-2.402;2023-11-21T06:57:33;101112.28;;;8.63;100.00
48882;BME280;57063;51.406;-2.402;2023-11-21T06:59:58;101114.38;;;8.53;100.00
48882;BME280;57063;51.406;-2.402;2023-11-21T07:02:24;101107.59;;;8.50;100.00
48882;BME280;57063;51.406;-2.402;2023-11-21T07:04:50;101127.81;;;8.61;100.00
48882;BME280;57063;51.406;-2.402;2023-11-21T07:07:15;101128.75;;;8.59;100.00
48882;BME280;57063;51.406;-2.402;2023-11-21T07:09:40;101128.28;;;8.49;100.00
48882;BME280;57063;51.406;-2.402;2023-11-21T07:12:06;101133.00;;;8.60;100.00
48882;BME280;57063;51.406;-2.402;2023-11-21T07:14:33;101125.31;;;8.58;100.00
48882;BME280;57063;51.406;-2.402;2023-11-21T07:16:59;101136.88;;;8.70;100.00
48882;BME280;57063;51.406;-2.402;2023-11-21T07:19:24;101133.44;;;8.71;100.00
48882;BME280;57063;51.406;-2.402;2023-11-21T07:21:50;101130.41;;;8.60;100.00
48882;BME280;57063;51.406;-2.402;2023-11-21T07:24:18;101132.78;;;8.66;100.00
48882;BME280;57063;51.406;-2.402;2023-11-21T07:26:44;101150.66;;;8.69;100.00
48882;BME280;57063;51.406;-2.402;2023-11-21T07:29:09;101153.47;;;8.63;100.00
48882;BME280;57063;51.406;-2.402;2023-11-21T07:31:36;101154.50;;;8.59;100.00
48882;BME280;57063;51.406;-2.402;2023-11-21T07:34:03;101170.59;;;8.64;100.00
48882;BME280;57063;51.406;-2.402;2023-11-21T07:36:28;101180.25;;;8.57;100.00
48882;BME280;57063;51.406;-2.402;2023-11-21T07:38:54;101187.16;;;8.56;100.00
48882;BME280;57063;51.406;-2.402;2023-11-21T07:41:19;101188.81;;;8.57;100.00
48882;BME280;57063;51.406;-2.402;2023-11-21T07:43:46;101193.84;;;8.61;100.00
48882;BME280;57063;51.406;-2.402;2023-11-21T07:46:12;101193.63;;;8.67;100.00
48882;BME280;57063;51.406;-2.402;2023-11-21T07:48:38;101201.75;;;8.56;100.00
48882;BME280;57063;51.406;-2.402;2023-11-21T07:51:03;101210.03;;;8.64;100.00
48882;BME280;57063;51.406;-2.402;2023-11-21T07:53:29;101224.63;;;8.64;100.00
48882;BME280;57063;51.406;-2.402;2023-11-21T07:55:58;101218.41;;;8.69;100.00
48882;BME280;57063;51.406;-2.402;2023-11-21T07:58:23;101224.19;;;8.76;100.00
48882;BME280;57063;51.406;-2.402;2023-11-21T08:00:49;101227.28;;;8.84;100.00
48882;BME280;57063;51.406;-2.402;2023-11-21T08:03:15;101229.50;;;8.71;100.00
48882;BME280;57063;51.406;-2.402;2023-11-21T08:05:41;101236.38;;;8.71;100.00
48882;BME280;57063;51.406;-2.402;2023-11-21T08:08:06;101229.19;;;8.79;100.00
48882;BME280;57063;51.406;-2.402;2023-11-21T08:10:33;101237.91;;;8.75;100.00
48882;BME280;57063;51.406;-2.402;2023-11-21T08:12:58;101230.81;;;8.82;100.00
48882;BME280;57063;51.406;-2.402;2023-11-21T08:15:24;101233.56;;;8.77;100.00
48882;BME280;57063;51.406;-2.402;2023-11-21T08:17:49;101244.66;;;8.79;100.00
48882;BME280;57063;51.406;-2.402;2023-11-21T08:20:14;101242.84;;;8.81;100.00
48882;BME280;57063;51.406;-2.402;2023-11-21T08:22:44;101253.03;;;8.84;100.00
48882;BME280;57063;51.406;-2.402;2023-11-21T08:25:09;101261.31;;;8.92;100.00
48882;BME280;57063;51.406;-2.402;2023-11-21T08:27:35;101256.28;;;8.89;100.00
48882;BME280;57063;51.406;-2.402;2023-11-21T08:30:01;101263.72;;;8.97;100.00
48882;BME280;57063;51.406;-2.402;2023-11-21T08:32:27;101263.44;;;8.81;100.00
48882;BME280;57063;51.406;-2.402;2023-11-21T08:34:53;101264.91;;;8.88;100.00
48882;BME280;57063;51.406;-2.402;2023-11-21T08:37:18;101263.00;;;8.93;100.00
48882;BME280;57063;51.406;-2.402;2023-11-21T08:39:44;101266.66;;;8.88;100.00
48882;BME280;57063;51.406;-2.402;2023-11-21T08:42:09;101279.31;;;8.92;100.00
48882;BME280;57063;51.406;-2.402;2023-11-21T08:44:35;101291.06;;;8.99;100.00
48882;BME280;57063;51.406;-2.402;2023-11-21T08:47:00;101297.13;;;8.98;100.00
48882;BME280;57063;51.406;-2.402;2023-11-21T08:49:25;101294.72;;;8.94;100.00
48882;BME280;57063;51.406;-2.402;2023-11-21T08:51:55;101295.91;;;8.85;100.00
48882;BME280;57063;51.406;-2.402;2023-11-21T08:54:21;101301.44;;;8.98;100.00
48882;BME280;57063;51.406;-2.402;2023-11-21T08:56:46;101302.44;;;8.94;100.00
48882;BME280;57063;51.406;-2.402;2023-11-21T08:59:12;101308.88;;;9.06;100.00
48882;BME280;57063;51.406;-2.402;2023-11-21T09:01:39;101309.72;;;9.06;100.00
48882;BME280;57063;51.406;-2.402;2023-11-21T09:04:05;101314.03;;;9.06;100.00
48882;BME280;57063;51.406;-2.402;2023-11-21T09:06:30;101316.44;;;9.10;100.00
48882;BME280;57063;51.406;-2.402;2023-11-21T09:08:55;101307.16;;;9.06;100.00
48882;BME280;57063;51.406;-2.402;2023-11-21T09:11:21;101315.13;;;9.00;100.00
48882;BME280;57063;51.406;-2.402;2023-11-21T09:13:46;101309.78;;;9.05;100.00
48882;BME280;57063;51.406;-2.402;2023-11-21T09:16:13;101314.50;;;9.17;100.00
48882;BME280;57063;51.406;-2.402;2023-11-21T09:18:38;101329.03;;;9.18;100.00
48882;BME280;57063;51.406;-2.402;2023-11-21T09:21:04;101336.00;;;9.38;100.00
48882;BME280;57063;51.406;-2.402;2023-11-21T09:23:30;101337.22;;;9.29;100.00
48882;BME280;57063;51.406;-2.402;2023-11-21T09:25:55;101331.09;;;9.32;100.00
48882;BME280;57063;51.406;-2.402;2023-11-21T09:28:22;101338.88;;;9.30;100.00
48882;BME280;57063;51.406;-2.402;2023-11-21T09:30:47;101329.34;;;9.32;100.00
48882;BME280;57063;51.406;-2.402;2023-11-21T09:33:15;101333.75;;;9.29;100.00
48882;BME280;57063;51.406;-2.402;2023-11-21T09:35:40;101336.66;;;9.43;100.00
48882;BME280;57063;51.406;-2.402;2023-11-21T09:38:06;101346.66;;;9.51;100.00
48882;BME280;57063;51.406;-2.402;2023-11-21T09:40:36;101355.75;;;9.61;100.00
48882;BME280;57063;51.406;-2.402;2023-11-21T09:43:06;101352.09;;;9.67;100.00
48882;BME280;57063;51.406;-2.402;2023-11-21T09:45:45;101360.34;;;9.75;100.00
48882;BME280;57063;51.406;-2.402;2023-11-21T09:48:11;101362.44;;;9.87;100.00
48882;BME280;57063;51.406;-2.402;2023-11-21T09:50:37;101363.84;;;9.52;100.00
48882;BME280;57063;51.406;-2.402;2023-11-21T09:53:21;101378.03;;;9.62;100.00
48882;BME280;57063;51.406;-2.402;2023-11-21T09:55:51;101374.69;;;9.60;100.00
48882;BME280;57063;51.406;-2.402;2023-11-21T09:58:18;101363.84;;;9.52;100.00
48882;BME280;57063;51.406;-2.402;2023-11-21T10:00:48;101368.34;;;9.69;100.00
48882;BME280;57063;51.406;-2.402;2023-11-21T10:03:15;101368.50;;;9.64;100.00
48882;BME280;57063;51.406;-2.402;2023-11-21T10:05:44;101367.19;;;9.54;100.00
48882;BME280;57063;51.406;-2.402;2023-11-21T10:08:13;101376.00;;;9.70;100.00
48882;BME280;57063;51.406;-2.402;2023-11-21T10:10:43;101376.59;;;9.77;100.00
48882;BME280;57063;51.406;-2.402;2023-11-21T10:13:13;101377.25;;;9.82;100.00
48882;BME280;57063;51.406;-2.402;2023-11-21T10:15:42;101372.22;;;9.79;100.00
48882;BME280;57063;51.406;-2.402;2023-11-21T10:18:14;101387.44;;;9.63;100.00
48882;BME280;57063;51.406;-2.402;2023-11-21T10:20:40;101383.72;;;9.70;100.00
48882;BME280;57063;51.406;-2.402;2023-11-21T10:23:07;101384.69;;;9.68;100.00
48882;BME280;57063;51.406;-2.402;2023-11-21T10:25:36;101382.25;;;9.64;100.00
48882;BME280;57063;51.406;-2.402;2023-11-21T10:28:03;101397.06;;;9.81;100.00
48882;BME280;57063;51.406;-2.402;2023-11-21T10:30:33;101390.31;;;9.99;100.00
48882;BME280;57063;51.406;-2.402;2023-11-21T10:33:02;101390.22;;;10.02;100.00
48882;BME280;57063;51.406;-2.402;2023-11-21T10:35:46;101399.19;;;10.14;100.00
48882;BME280;57063;51.406;-2.402;2023-11-21T10:38:20;101403.97;;;10.03;100.00
48882;BME280;57063;51.406;-2.402;2023-11-21T10:40:50;101399.97;;;10.16;100.00
48882;BME280;57063;51.406;-2.402;2023-11-21T10:43:16;101413.19;;;10.08;100.00
48882;BME280;57063;51.406;-2.402;2023-11-21T10:45:42;101420.09;;;10.08;100.00
48882;BME280;57063;51.406;-2.402;2023-11-21T10:48:10;101416.53;;;10.11;100.00
48882;BME280;57063;51.406;-2.402;2023-11-21T10:50:42;101412.09;;;9.92;100.00
48882;BME280;57063;51.406;-2.402;2023-11-21T10:53:08;101414.81;;;9.89;100.00
48882;BME280;57063;51.406;-2.402;2023-11-21T10:55:34;101422.00;;;10.03;100.00
48882;BME280;57063;51.406;-2.402;2023-11-21T10:58:02;101425.00;;;9.92;100.00
48882;BME280;57063;51.406;-2.402;2023-11-21T11:00:29;101427.66;;;9.91;100.00
48882;BME280;57063;51.406;-2.402;2023-11-21T11:02:55;101428.00;;;10.03;100.00
48882;BME280;57063;51.406;-2.402;2023-11-21T11:05:22;101437.22;;;10.09;100.00
48882;BME280;57063;51.406;-2.402;2023-11-21T11:07:50;101423.81;;;10.01;100.00
48882;BME280;57063;51.406;-2.402;2023-11-21T11:10:21;101429.41;;;9.90;100.00
48882;BME280;57063;51.406;-2.402;2023-11-21T11:12:48;101426.00;;;9.66;100.00
48882;BME280;57063;51.406;-2.402;2023-11-21T11:15:16;101421.72;;;9.89;100.00
48882;BME280;57063;51.406;-2.402;2023-11-21T11:17:41;101427.09;;;9.82;100.00
48882;BME280;57063;51.406;-2.402;2023-11-21T11:20:12;101420.78;;;9.90;100.00
48882;BME280;57063;51.406;-2.402;2023-11-21T11:22:46;101426.91;;;9.87;100.00
48882;BME280;57063;51.406;-2.402;2023-11-21T11:28:15;101433.84;;;9.85;100.00
48882;BME280;57063;51.406;-2.402;2023-11-21T11:31:04;101428.91;;;9.80;100.00
48882;BME280;57063;51.406;-2.402;2023-11-21T11:33:53;101428.22;;;9.75;100.00
48882;BME280;57063;51.406;-2.402;2023-11-21T11:36:26;101433.38;;;9.75;100.00
48882;BME280;57063;51.406;-2.402;2023-11-21T11:38:54;101434.72;;;9.85;100.00
48882;BME280;57063;51.406;-2.402;2023-11-21T11:41:30;101442.69;;;9.79;100.00
48882;BME280;57063;51.406;-2.402;2023-11-21T11:43:58;101439.97;;;10.04;100.00
48882;BME280;57063;51.406;-2.402;2023-11-21T11:46:53;101442.28;;;9.90;100.00
48882;BME280;57063;51.406;-2.402;2023-11-21T11:49:27;101445.44;;;9.97;100.00
48882;BME280;57063;51.406;-2.402;2023-11-21T11:55:18;101456.41;;;10.02;100.00
48882;BME280;57063;51.406;-2.402;2023-11-21T11:57:45;101468.19;;;10.09;100.00
48882;BME280;57063;51.406;-2.402;2023-11-21T12:00:19;101461.56;;;10.02;100.00
48882;BME280;57063;51.406;-2.402;2023-11-21T12:02:52;101470.09;;;10.04;100.00
48882;BME280;57063;51.406;-2.402;2023-11-21T12:05:19;101474.25;;;10.08;100.00
48882;BME280;57063;51.406;-2.402;2023-11-21T12:07:52;101476.97;;;10.05;100.00
48882;BME280;57063;51.406;-2.402;2023-11-21T12:10:20;101477.00;;;10.03;100.00
48882;BME280;57063;51.406;-2.402;2023-11-21T12:12:50;101477.91;;;10.02;100.00
48882;BME280;57063;51.406;-2.402;2023-11-21T12:15:17;101476.31;;;10.00;100.00
48882;BME280;57063;51.406;-2.402;2023-11-21T12:17:44;101483.78;;;10.06;100.00
48882;BME280;57063;51.406;-2.402;2023-11-21T12:20:11;101480.19;;;10.10;100.00
48882;BME280;57063;51.406;-2.402;2023-11-21T12:22:47;101488.78;;;10.11;100.00
48882;BME280;57063;51.406;-2.402;2023-11-21T12:25:17;101492.31;;;10.08;100.00
48882;BME280;57063;51.406;-2.402;2023-11-21T12:27:44;101492.31;;;10.08;100.00
48882;BME280;57063;51.406;-2.402;2023-11-21T12:30:11;101488.25;;;10.24;100.00
48882;BME280;57063;51.406;-2.402;2023-11-21T12:32:47;101495.72;;;10.32;100.00
48882;BME280;57063;51.406;-2.402;2023-11-21T12:35:13;101489.81;;;10.28;100.00
48882;BME280;57063;51.406;-2.402;2023-11-21T12:37:39;101482.84;;;10.31;100.00
48882;BME280;57063;51.406;-2.402;2023-11-21T12:40:06;101494.63;;;10.38;100.00